createdAt,value
2022-11-14T00:02:09.944Z,65.66
2022-11-14T00:04:56.476Z,65.60
2022-11-14T00:07:43.165Z,65.49
2022-11-14T00:10:29.772Z,65.75
2022-11-14T00:13:17.784Z,65.75
2022-11-14T00:16:05.900Z,65.18
2022-11-14T00:18:52.804Z,65.16
2022-11-14T00:21:41.354Z,66.06
2022-11-14T00:24:27.973Z,66.02
2022-11-14T00:27:14.396Z,65.70
2022-11-14T00:30:01.414Z,65.79
2022-11-14T00:32:49.588Z,65.60
2022-11-14T00:35:36.385Z,65.44
2022-11-14T00:38:23.769Z,65.77
2022-11-14T00:41:10.377Z,65.45
2022-11-14T00:43:56.996Z,65.27
2022-11-14T00:46:43.766Z,65.18
2022-11-14T00:49:31.782Z,65.36
2022-11-14T00:52:18.281Z,65.93
2022-11-14T00:55:05.706Z,65.44
2022-11-14T00:57:52.238Z,65.51
2022-11-14T01:00:38.991Z,65.89
2022-11-14T01:03:25.921Z,65.66
2022-11-14T01:06:15.789Z,65.61
2022-11-14T01:09:02.851Z,65.71
2022-11-14T01:11:49.558Z,65.59
2022-11-14T01:14:36.233Z,65.70
2022-11-14T01:17:23.074Z,65.81
2022-11-14T01:20:10.556Z,65.71
2022-11-14T01:22:58.779Z,65.65
2022-11-14T01:25:45.475Z,66.17
2022-11-14T01:28:32.681Z,66.04
2022-11-14T01:31:23.252Z,66.08
2022-11-14T01:34:09.819Z,66.02
2022-11-14T01:36:56.496Z,66.04
2022-11-14T01:39:44.630Z,66.00
2022-11-14T01:42:31.201Z,66.10
2022-11-14T01:45:51.555Z,66.00
2022-11-14T01:48:42.913Z,65.95
2022-11-14T01:51:35.317Z,66.20
2022-11-14T01:54:27.591Z,66.20
2022-11-14T01:57:21.152Z,66.24
2022-11-14T02:00:12.304Z,66.32
2022-11-14T02:02:59.456Z,66.29
2022-11-14T02:05:48.912Z,66.10
2022-11-14T02:08:36.348Z,66.72
2022-11-14T02:11:23.213Z,66.70
2022-11-14T02:14:11.664Z,67.01
2022-11-14T02:17:22.678Z,67.03
2022-11-14T02:20:19.862Z,66.71
2022-11-14T02:23:06.614Z,66.46
2022-11-14T02:25:53.527Z,66.65
2022-11-14T02:28:40.661Z,66.40
2022-11-14T02:31:27.435Z,66.76
2022-11-14T02:34:16.820Z,66.98
2022-11-14T02:37:05.116Z,66.36
2022-11-14T02:39:51.767Z,66.58
2022-11-14T02:42:38.633Z,66.74
2022-11-14T02:45:25.241Z,67.24
2022-11-14T02:48:11.909Z,67.04
2022-11-14T02:50:58.899Z,66.75
2022-11-14T02:53:46.998Z,67.59
2022-11-14T02:56:33.799Z,66.93
2022-11-14T02:59:20.465Z,67.45
2022-11-14T03:02:07.185Z,66.82
2022-11-14T03:04:53.985Z,66.94
2022-11-14T03:07:40.502Z,67.01
2022-11-14T03:10:28.381Z,66.92
2022-11-14T03:13:15.259Z,66.92
2022-11-14T03:16:07.486Z,66.90
2022-11-14T03:18:54.680Z,67.10
2022-11-14T03:21:41.429Z,67.37
2022-11-14T03:24:28.261Z,67.61
2022-11-14T03:27:16.774Z,67.64
2022-11-14T03:30:03.601Z,67.08
2022-11-14T03:32:50.417Z,67.25
2022-11-14T03:35:37.317Z,67.57
2022-11-14T03:38:24.401Z,67.55
2022-11-14T03:41:10.806Z,67.28
2022-11-14T03:43:58.990Z,67.32
2022-11-14T03:46:45.585Z,66.90
2022-11-14T03:49:32.339Z,67.67
2022-11-14T03:52:19.497Z,67.28
2022-11-14T03:55:07.751Z,67.58
2022-11-14T03:57:54.336Z,67.63
2022-11-14T04:00:42.592Z,67.95
2022-11-14T04:03:28.981Z,67.08
2022-11-14T04:06:16.132Z,67.13
2022-11-14T04:09:02.947Z,67.09
2022-11-14T04:11:49.977Z,67.49
2022-11-14T04:14:36.811Z,67.90
2022-11-14T04:17:25.081Z,67.32
2022-11-14T04:20:14.071Z,67.37
2022-11-14T04:23:00.754Z,67.79
2022-11-14T04:25:48.386Z,67.92
2022-11-14T04:28:35.166Z,67.94
2022-11-14T04:31:21.779Z,68.07
2022-11-14T04:34:09.810Z,67.44
2022-11-14T04:36:56.365Z,67.63
2022-11-14T04:39:43.198Z,67.37
2022-11-14T04:42:30.225Z,67.63
2022-11-14T04:45:17.100Z,67.75
2022-11-14T04:48:04.072Z,68.12
2022-11-14T04:50:52.103Z,68.27
2022-11-14T04:53:38.824Z,68.42
2022-11-14T04:56:25.599Z,67.95
2022-11-14T04:59:14.789Z,68.34
2022-11-14T05:02:05.145Z,68.12
2022-11-14T05:04:51.942Z,67.79
2022-11-14T05:07:39.903Z,68.18
2022-11-14T05:10:26.787Z,68.12
2022-11-14T05:13:13.961Z,67.93
2022-11-14T05:16:01.256Z,68.17
2022-11-14T05:18:47.916Z,68.07
2022-11-14T05:21:34.773Z,67.56
2022-11-14T05:24:23.323Z,67.62
2022-11-14T05:27:09.858Z,67.72
2022-11-14T05:29:56.580Z,67.55
2022-11-14T05:32:43.389Z,67.13
2022-11-14T05:35:30.332Z,67.35
2022-11-14T05:38:16.918Z,67.88
2022-11-14T05:41:08.575Z,68.20
2022-11-14T05:43:55.180Z,67.77
2022-11-14T05:46:41.999Z,67.87
2022-11-14T05:49:28.827Z,67.60
2022-11-14T05:52:16.115Z,67.85
2022-11-14T05:55:02.978Z,66.45
2022-11-14T05:57:50.973Z,67.45
2022-11-14T06:00:44.336Z,67.14
2022-11-14T06:03:38.567Z,67.58
2022-11-14T06:06:25.126Z,67.87
2022-11-14T06:09:11.738Z,67.55
2022-11-14T06:11:58.148Z,67.60
2022-11-14T06:14:46.337Z,67.77
2022-11-14T06:17:33.291Z,67.89
2022-11-14T06:20:19.925Z,67.59
2022-11-14T06:23:06.677Z,67.93
2022-11-14T06:25:53.564Z,67.65
2022-11-14T06:28:40.136Z,67.23
2022-11-14T06:31:28.645Z,67.63
2022-11-14T06:34:15.401Z,67.47
2022-11-14T06:37:02.164Z,67.58
2022-11-14T06:39:48.763Z,67.65
2022-11-14T06:42:35.651Z,68.08
2022-11-14T06:45:22.549Z,67.47
2022-11-14T06:48:10.883Z,67.71
2022-11-14T06:50:59.323Z,67.40
2022-11-14T06:53:46.645Z,67.64
2022-11-14T06:56:33.713Z,67.99
2022-11-14T06:59:20.320Z,67.72
2022-11-14T07:02:10.574Z,67.87
2022-11-14T07:04:58.842Z,67.76
2022-11-14T07:07:45.601Z,68.15
2022-11-14T07:10:32.363Z,67.85
2022-11-14T07:13:18.984Z,67.60
2022-11-14T07:16:06.818Z,67.64
2022-11-14T07:18:54.034Z,67.61
2022-11-14T07:21:42.554Z,67.48
2022-11-14T07:24:29.349Z,67.32
2022-11-14T07:27:15.799Z,67.17
2022-11-14T07:30:02.368Z,67.19
2022-11-14T07:32:56.963Z,67.33
2022-11-14T07:35:43.875Z,67.19
2022-11-14T07:38:33.389Z,67.01
2022-11-14T07:41:20.000Z,67.42
2022-11-14T07:44:06.730Z,67.47
2022-11-14T07:46:53.522Z,67.58
2022-11-14T07:49:40.155Z,67.22
2022-11-14T07:52:26.626Z,67.40
2022-11-14T07:55:14.860Z,67.59
2022-11-14T07:58:01.436Z,67.53
2022-11-14T08:00:48.167Z,67.54
2022-11-14T08:03:36.658Z,67.17
2022-11-14T08:06:25.794Z,67.64
2022-11-14T08:09:12.730Z,67.47
2022-11-14T08:12:00.720Z,67.68
2022-11-14T08:14:47.570Z,67.83
2022-11-14T08:17:34.412Z,67.62
2022-11-14T08:20:21.340Z,67.77
2022-11-14T08:23:08.683Z,67.17
2022-11-14T08:25:55.436Z,67.73
2022-11-14T08:28:46.054Z,67.86
2022-11-14T08:31:32.894Z,67.85
2022-11-14T08:34:19.598Z,67.73
2022-11-14T08:37:06.491Z,68.16
2022-11-14T08:39:53.151Z,67.74
2022-11-14T08:42:40.103Z,68.04
2022-11-14T08:45:28.432Z,68.71
2022-11-14T08:48:15.004Z,69.19
2022-11-14T08:51:05.710Z,69.46
2022-11-14T08:53:52.421Z,69.77
2022-11-14T08:56:39.938Z,70.77
2022-11-14T08:59:26.442Z,70.46
2022-11-14T09:02:15.276Z,71.11
2022-11-14T09:05:02.028Z,70.93
2022-11-14T09:07:48.971Z,71.33
2022-11-14T09:10:36.188Z,71.08
2022-11-14T09:13:23.235Z,71.08
2022-11-14T09:16:10.293Z,71.05
2022-11-14T09:18:58.420Z,70.89
2022-11-14T09:21:45.162Z,71.31
2022-11-14T09:24:31.953Z,71.10
2022-11-14T09:27:18.975Z,71.44
2022-11-14T09:30:07.210Z,71.79
2022-11-14T09:32:53.722Z,71.44
2022-11-14T09:35:41.748Z,71.67
2022-11-14T09:38:28.627Z,71.76
2022-11-14T09:41:27.393Z,71.91
2022-11-14T09:44:50.947Z,71.63
2022-11-14T09:47:43.414Z,70.92
2022-11-14T09:50:35.781Z,71.54
2022-11-14T09:53:32.894Z,72.29
2022-11-14T09:56:25.637Z,71.92
2022-11-14T09:59:14.009Z,72.12
2022-11-14T10:02:07.019Z,71.72
2022-11-14T10:05:09.970Z,72.56
2022-11-14T10:08:21.664Z,72.49
2022-11-14T10:11:15.030Z,72.42
2022-11-14T10:14:28.707Z,72.93
2022-11-14T10:17:35.838Z,74.16
2022-11-14T10:20:30.148Z,74.22
2022-11-14T10:23:32.598Z,73.31
2022-11-14T10:26:30.064Z,72.33
2022-11-14T10:29:59.384Z,71.15
2022-11-14T10:33:19.866Z,71.45
2022-11-14T10:36:14.685Z,71.51
2022-11-14T10:39:10.734Z,70.92
2022-11-14T10:42:07.686Z,71.12
2022-11-14T10:45:03.453Z,70.94
2022-11-14T10:47:55.763Z,70.74
2022-11-14T10:50:52.447Z,70.72
2022-11-14T10:53:55.103Z,70.36
2022-11-14T10:56:48.113Z,69.98
2022-11-14T10:59:36.389Z,70.52
2022-11-14T11:02:23.189Z,69.79
2022-11-14T11:05:17.680Z,69.66
2022-11-14T11:08:42.563Z,69.28
2022-11-14T11:11:32.817Z,70.20
2022-11-14T11:14:20.875Z,69.57
2022-11-14T11:17:28.386Z,69.59
2022-11-14T11:20:34.751Z,69.30
2022-11-14T11:23:26.358Z,69.55
2022-11-14T11:26:24.360Z,69.58
2022-11-14T11:29:18.572Z,69.54
2022-11-14T11:32:06.091Z,69.35
2022-11-14T11:34:54.712Z,69.22
2022-11-14T11:37:48.833Z,68.58
2022-11-14T11:40:35.608Z,68.47
2022-11-14T11:43:40.430Z,68.67
2022-11-14T11:46:35.779Z,68.60
2022-11-14T11:49:47.404Z,68.50
2022-11-14T11:52:48.585Z,68.41
2022-11-14T11:55:41.148Z,67.92
2022-11-14T11:58:33.839Z,67.73
2022-11-14T12:01:20.778Z,67.98
2022-11-14T12:04:07.472Z,68.27
2022-11-14T12:07:13.807Z,68.17
2022-11-14T12:10:10.655Z,68.20
2022-11-14T12:13:31.316Z,67.90
2022-11-14T12:16:41.471Z,67.55
2022-11-14T12:20:01.881Z,67.65
2022-11-14T12:23:26.946Z,68.37
2022-11-14T12:26:34.032Z,67.81
2022-11-14T12:29:54.732Z,67.11
2022-11-14T12:32:48.767Z,67.26
2022-11-14T12:35:48.048Z,66.90
2022-11-14T12:38:46.472Z,66.75
2022-11-14T12:41:37.926Z,66.84
2022-11-14T12:44:37.051Z,66.88
2022-11-14T12:47:25.784Z,65.99
2022-11-14T12:50:42.461Z,65.41
2022-11-14T12:53:45.219Z,66.16
2022-11-14T12:57:05.052Z,65.15
2022-11-14T13:00:03.603Z,65.01
2022-11-14T13:03:26.708Z,64.99
2022-11-14T13:06:23.980Z,65.03
2022-11-14T13:09:36.472Z,64.81
2022-11-14T13:12:52.011Z,65.01
2022-11-14T13:16:08.274Z,64.41
2022-11-14T13:19:18.633Z,64.67
2022-11-14T13:22:47.549Z,64.62
2022-11-14T13:25:34.315Z,64.68
2022-11-14T13:28:48.832Z,64.45
2022-11-14T13:31:50.375Z,64.73
2022-11-14T13:34:53.094Z,64.84
2022-11-14T13:38:04.914Z,64.70
2022-11-14T13:41:03.206Z,64.80
2022-11-14T13:44:08.438Z,64.25
2022-11-14T13:47:18.138Z,64.13
2022-11-14T13:50:08.934Z,63.69
2022-11-14T13:52:56.306Z,63.88
2022-11-14T13:56:01.663Z,63.06
2022-11-14T13:59:18.890Z,63.45
2022-11-14T14:02:39.492Z,63.18
2022-11-14T14:05:35.745Z,63.14
2022-11-14T14:08:43.043Z,62.33
2022-11-14T14:11:46.445Z,62.52
2022-11-14T14:14:59.304Z,62.05
2022-11-14T14:17:59.579Z,62.09
2022-11-14T14:20:54.905Z,62.43
2022-11-14T14:23:49.397Z,62.71
2022-11-14T14:26:59.510Z,62.19
2022-11-14T14:29:58.973Z,62.00
2022-11-14T14:32:45.675Z,62.45
2022-11-14T14:35:40.171Z,61.42
2022-11-14T14:38:29.346Z,61.85
2022-11-14T14:41:19.572Z,61.60
2022-11-14T14:44:07.660Z,61.88
2022-11-14T14:46:56.370Z,61.77
2022-11-14T14:49:43.965Z,61.93
2022-11-14T14:52:34.397Z,62.06
2022-11-14T14:55:27.027Z,61.73
2022-11-14T14:58:26.966Z,62.16
2022-11-14T15:01:16.186Z,62.16
2022-11-14T15:04:08.483Z,61.57
2022-11-14T15:06:57.346Z,62.21
2022-11-14T15:09:54.622Z,62.05
2022-11-14T15:12:43.065Z,62.10
2022-11-14T15:15:30.230Z,62.43
2022-11-14T15:18:26.466Z,62.78
2022-11-14T15:21:27.178Z,62.42
2022-11-14T15:24:18.063Z,62.12
2022-11-14T15:27:12.264Z,62.84
2022-11-14T15:30:05.912Z,62.24
2022-11-14T15:32:57.940Z,62.61
2022-11-14T15:35:44.418Z,62.06
2022-11-14T15:38:48.201Z,62.10
2022-11-14T15:41:35.345Z,61.77
2022-11-14T15:44:33.018Z,62.06
2022-11-14T15:47:23.814Z,62.20
2022-11-14T15:50:31.231Z,62.82
2022-11-14T15:53:24.114Z,62.71
2022-11-14T15:56:14.413Z,62.75
2022-11-14T15:59:02.420Z,62.83
2022-11-14T16:01:52.831Z,62.69
2022-11-14T16:04:46.028Z,63.15
2022-11-14T16:07:34.023Z,62.70
2022-11-14T16:10:23.699Z,62.88
2022-11-14T16:13:12.041Z,62.58
2022-11-14T16:15:58.552Z,63.08
2022-11-14T16:18:45.313Z,62.50
2022-11-14T16:21:32.417Z,62.94
2022-11-14T16:24:22.776Z,62.34
2022-11-14T16:27:10.732Z,62.22
2022-11-14T16:29:58.807Z,62.87
2022-11-14T16:32:48.138Z,62.83
2022-11-14T16:35:34.884Z,62.81
2022-11-14T16:38:21.583Z,62.65
2022-11-14T16:41:09.010Z,62.95
2022-11-14T16:43:57.567Z,62.90
2022-11-14T16:46:46.517Z,63.00
2022-11-14T16:49:33.356Z,63.03
2022-11-14T16:52:20.219Z,63.28
2022-11-14T16:55:08.023Z,63.19
2022-11-14T16:57:55.311Z,63.84
2022-11-14T17:00:44.098Z,63.31
2022-11-14T17:03:34.213Z,63.79
2022-11-14T17:06:21.232Z,63.81
2022-11-14T17:09:08.247Z,63.84
2022-11-14T17:12:00.788Z,64.32
2022-11-14T17:14:50.795Z,64.04
2022-11-14T17:17:37.674Z,64.10
2022-11-14T17:20:25.938Z,64.41
2022-11-14T17:23:13.030Z,64.46
2022-11-14T17:26:03.683Z,63.84
2022-11-14T17:28:50.651Z,64.22
2022-11-14T17:31:39.521Z,63.86
2022-11-14T17:34:28.711Z,63.94
2022-11-14T17:37:16.801Z,63.83
2022-11-14T17:40:04.189Z,65.12
2022-11-14T17:42:52.309Z,64.56
2022-11-14T17:45:41.337Z,64.82
2022-11-14T17:48:28.810Z,64.77
2022-11-14T17:51:17.416Z,64.86
2022-11-14T17:54:05.798Z,64.72
2022-11-14T17:56:55.283Z,65.11
2022-11-14T17:59:42.257Z,64.83
2022-11-14T18:02:31.128Z,64.79
2022-11-14T18:05:18.057Z,65.29
2022-11-14T18:08:04.658Z,65.06
2022-11-14T18:10:53.325Z,65.52
2022-11-14T18:13:41.170Z,66.18
2022-11-14T18:16:44.443Z,66.13
2022-11-14T18:19:34.410Z,66.33
2022-11-14T18:22:20.971Z,65.82
2022-11-14T18:25:11.794Z,65.86
2022-11-14T18:27:59.974Z,65.88
2022-11-14T18:30:55.706Z,65.76
2022-11-14T18:33:43.551Z,65.92
2022-11-14T18:36:30.200Z,66.04
2022-11-14T18:39:16.836Z,66.40
2022-11-14T18:42:03.548Z,66.19
2022-11-14T18:44:52.116Z,66.26
2022-11-14T18:47:38.904Z,65.96
2022-11-14T18:50:25.509Z,66.40
2022-11-14T18:53:12.523Z,66.05
2022-11-14T18:55:59.753Z,66.11
2022-11-14T18:58:53.343Z,66.02
2022-11-14T19:01:41.747Z,66.20
2022-11-14T19:04:28.412Z,66.41
2022-11-14T19:07:15.303Z,66.17
2022-11-14T19:10:01.842Z,66.43
2022-11-14T19:12:48.876Z,65.88
2022-11-14T19:15:38.094Z,66.32
2022-11-14T19:18:26.227Z,65.80
2022-11-14T19:21:12.789Z,65.88
2022-11-14T19:24:00.317Z,65.99
2022-11-14T19:26:52.051Z,65.84
2022-11-14T19:29:38.469Z,65.86
2022-11-14T19:32:24.953Z,65.77
2022-11-14T19:35:19.813Z,66.04
2022-11-14T19:38:07.298Z,67.10
2022-11-14T19:40:54.245Z,65.86
2022-11-14T19:43:43.517Z,65.90
2022-11-14T19:46:30.068Z,65.29
2022-11-14T19:49:16.972Z,65.21
2022-11-14T19:52:08.406Z,65.35
2022-11-14T19:54:55.174Z,65.29
2022-11-14T19:57:42.127Z,65.28
2022-11-14T20:00:29.366Z,65.29
2022-11-14T20:03:17.525Z,64.72
2022-11-14T20:06:13.435Z,65.38
2022-11-14T20:09:03.786Z,65.04
2022-11-14T20:11:50.653Z,65.05
2022-11-14T20:14:37.461Z,64.85
2022-11-14T20:17:24.817Z,64.94
2022-11-14T20:20:12.149Z,65.12
2022-11-14T20:22:58.940Z,65.08
2022-11-14T20:25:53.042Z,65.15
2022-11-14T20:28:40.371Z,65.12
2022-11-14T20:31:30.329Z,64.90
2022-11-14T20:34:17.214Z,64.47
2022-11-14T20:37:11.043Z,64.58
2022-11-14T20:39:58.637Z,64.50
2022-11-14T20:42:49.771Z,64.48
2022-11-14T20:45:36.547Z,64.24
2022-11-14T20:48:23.305Z,64.26
2022-11-14T20:51:14.048Z,64.19
2022-11-14T20:54:00.784Z,64.63
2022-11-14T20:56:48.014Z,64.16
2022-11-14T20:59:36.084Z,64.56
2022-11-14T21:02:23.035Z,64.67
2022-11-14T21:05:11.434Z,64.29
2022-11-14T21:07:58.012Z,64.04
2022-11-14T21:10:48.005Z,64.20
2022-11-14T21:13:54.840Z,64.07
2022-11-14T21:16:42.883Z,63.84
2022-11-14T21:19:30.042Z,63.55
2022-11-14T21:22:16.577Z,63.38
2022-11-14T21:25:03.896Z,63.20
2022-11-14T21:27:50.722Z,62.72
2022-11-14T21:30:37.593Z,62.74
2022-11-14T21:33:26.871Z,62.91
2022-11-14T21:39:22.140Z,62.49
2022-11-14T21:42:09.271Z,62.53
2022-11-14T21:44:57.873Z,62.58
2022-11-14T21:47:44.848Z,62.55
2022-11-14T21:50:34.241Z,62.59
2022-11-14T21:53:23.656Z,62.35
2022-11-14T21:56:13.039Z,62.57
2022-11-14T21:59:14.820Z,62.81
2022-11-14T22:02:19.653Z,63.16
2022-11-14T22:05:07.612Z,62.84
2022-11-14T22:07:55.381Z,62.74
2022-11-14T22:10:42.017Z,62.13
2022-11-14T22:13:31.988Z,62.46
2022-11-14T22:16:19.643Z,62.47
2022-11-14T22:19:06.416Z,62.56
2022-11-14T22:21:54.173Z,62.23
2022-11-14T22:24:42.017Z,62.15
2022-11-14T22:27:28.503Z,62.10
2022-11-14T22:30:15.726Z,62.29
2022-11-14T22:33:02.265Z,62.41
2022-11-14T22:35:48.958Z,62.38
2022-11-14T22:38:37.745Z,62.64
2022-11-14T22:41:32.347Z,62.46
2022-11-14T22:44:20.034Z,62.37
2022-11-14T22:47:06.614Z,63.04
2022-11-14T22:49:53.339Z,62.64
2022-11-14T22:52:39.842Z,62.68
2022-11-14T22:55:26.340Z,62.83
2022-11-14T22:58:14.149Z,62.40
2022-11-14T23:01:01.197Z,62.39
2022-11-14T23:03:49.367Z,62.73
2022-11-14T23:06:36.131Z,62.42
2022-11-14T23:09:22.776Z,62.92
2022-11-14T23:12:09.586Z,62.24
2022-11-14T23:14:57.827Z,61.94
2022-11-14T23:17:44.449Z,62.34
2022-11-14T23:20:31.913Z,61.98
2022-11-14T23:23:18.616Z,62.57
2022-11-14T23:26:06.294Z,62.47
2022-11-14T23:28:53.762Z,62.17
2022-11-14T23:31:41.966Z,61.99
2022-11-14T23:34:28.843Z,62.15
2022-11-14T23:37:15.427Z,62.52
2022-11-14T23:40:01.981Z,62.46
2022-11-14T23:42:48.685Z,62.66
2022-11-14T23:45:35.582Z,63.06
2022-11-14T23:48:23.859Z,62.97
2022-11-14T23:51:10.910Z,62.72
2022-11-14T23:53:57.448Z,62.24
2022-11-14T23:56:44.764Z,62.46
2022-11-14T23:59:31.552Z,62.21
